Flight Track Log - Related Links

Times and Time Zones

All times are in EDT time to prevent confusion due to time zone crossing. See the UAL4553 flight status page for this flight to view local times or setup timezone preferences in your user account.

Time Position Orientation Groundspeed Altitude Reporting Facility
EDT Latitude Longitude Course Direction KTS MPH feet Rate Location/Type
Wed 20:14:58 29.9767 -95.3008 124° Southeast 177 204 800  Level Houston Center
Wed 20:15:36 29.9639 -95.2786 124° Southeast 180 207 2,000 2,051 Climbing Houston Center
Wed 20:16:17 29.9192 -95.2450 147° Southeast 257 296 3,500 2,032 Climbing Houston Center
Wed 20:16:38 29.9117 -95.2344 129° Southeast 232 267 4,100 1,880 Climbing Houston Center
Wed 20:17:40 29.8942 -95.1528 104° East 262 302 6,100 2,323 Climbing Houston Center
Wed 20:18:42 29.9064 -95.0439 83° East 282 325 8,900 1,951 Climbing Houston Center
Wed 20:19:43 29.9200 -94.9400 81° East 317 365 10,100 1,220 Climbing Houston Center
Wed 20:20:45 29.9344 -94.8242 82° East 357 411 11,400 1,355 Climbing Houston Center
Wed 20:21:47 29.9492 -94.7036 82° East 374 430 12,900 1,210 Climbing Houston Center
Wed 20:22:49 29.9639 -94.5781 82° East 392 451 13,900 1,016 Climbing Houston Center
Wed 20:23:51 29.9808 -94.4372 82° East 409 471 15,000 1,016 Climbing Houston Center
Wed 20:24:53 29.9958 -94.3044 83° East 417 480 16,000 919 Climbing Houston Center
Wed 20:25:55 30.0133 -94.1708 81° East 423 487 16,900 829 Climbing Houston Center
Wed 20:26:56 30.0300 -94.0361 82° East 427 491 17,700 976 Climbing Houston Center
Wed 20:27:58 30.0503 -93.8722 82° East 432 497 18,900 1,016 Climbing Houston Center
Wed 20:29:00 30.0664 -93.7336 82° East 438 504 19,800 919 Climbing Houston Center
Wed 20:30:02 30.0839 -93.5922 82° East 449 517 20,800 581 Climbing Houston Center
Wed 20:31:04 30.1008 -93.4483 82° East 463 533 21,000 97 Climbing Houston Center
Wed 20:32:06 30.1181 -93.2972 82° East 480 552 21,000 -49 Level Houston Center
Wed 20:33:07 30.1389 -93.1158 82° East 480 552 20,900 -1,122 Descending Houston Center
Wed 20:34:09 30.1478 -92.9658 86° East 475 547 18,700 -2,274 Descending Houston Center
Wed 20:35:11 30.1556 -92.8258 86° East 446 513 16,200 -2,274 Descending Houston Center
Wed 20:36:13 30.1617 -92.6944 87° East 419 482 14,000 -2,032 Descending Houston Center
Wed 20:37:15 30.1672 -92.5767 87° East 371 427 12,000 -1,790 Descending Houston Center
Wed 20:38:17 30.1725 -92.4733 87° East 328 377 10,300 -1,756 Descending Houston Center
Wed 20:39:18 30.1772 -92.3558 87° East 312 359 8,400 -1,707 Descending Houston Center
Wed 20:40:20 30.1506 -92.2769 111° Southeast 290 334 6,800 -1,403 Descending Houston Center
Wed 20:41:22 30.0917 -92.2264 143° Southeast 268 308 5,500 -1,355 Descending Houston Center
Wed 20:42:24 30.0492 -92.1661 129° Southeast 248 285 4,000 -1,161 Descending Houston Center
Wed 20:43:26 30.0708 -92.1081 67° East 219 252 3,100 -732 Descending Houston Center
Wed 20:44:27 30.1128 -92.0669 40° Northeast 202 232 2,500 -590 Descending Houston Center

Login

Don't have an account? Register now (free) for customized features, flight alerts, and more!